Wednesday, November 21, 2018, 10:25 AM GMT
Back to Local

CWWE, Western Head, N. S.

Location: , , Canada Lat: 43.983
Local Time: 10:25 AM GMT (10:25 GMT) Lon: -64.667
Time Zone: GMT Elev: 29 ft

Show me the last for .
Show Coded

Time T Td Feel RH Dir Speed Gust Alt SLP Vis Weather Sky Remarks
2018-11-21 10:00 33 32 27 93 290° 8 - - 29.73 0 None
2018-11-21 09:00 34 31 27 89 300° 9 - - 29.69 0 None
2018-11-21 08:00 34 31 22 89 300° 13 22 - 29.65 0 Peak wind: 21 mph (19 kts) from 300° at 57 min
Pressure rising rapidly
2018-11-21 07:00 35 34 23 96 330° 14 22 - 29.58 0 Peak wind: 25 mph (22 kts) from 320° at 16 min
2018-11-21 06:00 36 35 25 97 310° 12 18 - 29.54 0 None
2018-11-21 05:00 37 37 31 97 360° 9 - - 29.53 0 None
2018-11-21 04:00 38 38 36 97 360° 3 - - 29.55 0 None
2018-11-21 03:00 40 40 36 97 360° 6 - - 29.59 0 None
2018-11-21 02:00 42 41 36 98 60° 9 - - 29.62 0 None
2018-11-21 01:00 41 41 34 99 60° 12 - - 29.66 0 None
2018-11-21 00:00 38 40 32 105 50° 9 - - 29.70 0 None
2018-11-20 23:00 40 40 33 97 60° 13 - - 29.73 0 None
2018-11-20 22:00 39 39 33 97 50° 9 - - 29.74 0 None
2018-11-20 21:00 39 39 34 97 40° 7 - - 29.78 0 None
2018-11-20 20:00 40 39 36 97 40° 6 - - 29.80 0 None
2018-11-20 19:00 40 40 36 97 60° 6 - - 29.82 0 None
2018-11-20 18:00 40 39 36 96 50° 7 - - 29.83 0 None
2018-11-20 17:00 41 38 38 91 50° 5 - - 29.85 0 None
2018-11-20 16:00 40 40 37 97 40° 5 - - 29.86 0 None
2018-11-20 15:00 40 40 38 97 10° 3 - - 29.89 0 None
2018-11-20 14:00 40 40 38 97 360° 3 - - 29.89 0 None
2018-11-20 13:00 39 39 37 98 350° 3 - - 29.92 0 None
2018-11-20 12:00 38 38 35 98 360° 5 - - 29.90 0 None
2018-11-20 11:00 40 39 36 97 350° 5 - - 29.90 0 None

Support USWX by starting your Amazon purchase here.